sensor_id;sensor_type;location;lat;lon;timestamp;pressure;altitude;pressure_sealevel;temperature;humidity
44385;BME280;30101;32.778;34.994;2022-09-02T00:01:14;97168.28;;;25.36;77.62
44385;BME280;30101;32.778;34.994;2022-09-02T00:06:23;97172.13;;;25.35;77.38
44385;BME280;30101;32.778;34.994;2022-09-02T00:11:29;97170.19;;;25.36;77.82
44385;BME280;30101;32.778;34.994;2022-09-02T00:16:34;97164.25;;;25.34;77.40
44385;BME280;30101;32.778;34.994;2022-09-02T00:21:37;97177.94;;;25.34;77.29
44385;BME280;30101;32.778;34.994;2022-09-02T00:26:41;97173.56;;;25.33;77.65
44385;BME280;30101;32.778;34.994;2022-09-02T00:31:46;97179.03;;;25.33;77.40
44385;BME280;30101;32.778;34.994;2022-09-02T00:36:49;97171.34;;;25.35;77.55
44385;BME280;30101;32.778;34.994;2022-09-02T00:41:53;97165.06;;;25.34;77.58
44385;BME280;30101;32.778;34.994;2022-09-02T00:47:00;97173.59;;;25.41;77.39
44385;BME280;30101;32.778;34.994;2022-09-02T00:52:04;97182.44;;;25.47;77.60
44385;BME280;30101;32.778;34.994;2022-09-02T00:57:12;97177.78;;;25.47;77.55
44385;BME280;30101;32.778;34.994;2022-09-02T01:02:17;97176.47;;;25.45;77.71
44385;BME280;30101;32.778;34.994;2022-09-02T01:07:23;97181.59;;;25.38;77.85
44385;BME280;30101;32.778;34.994;2022-09-02T01:12:29;97177.28;;;25.37;77.34
44385;BME280;30101;32.778;34.994;2022-09-02T01:17:33;97177.13;;;25.33;77.73
44385;BME280;30101;32.778;34.994;2022-09-02T01:22:39;97181.13;;;25.27;77.17
44385;BME280;30101;32.778;34.994;2022-09-02T01:27:49;97173.56;;;25.24;77.21
44385;BME280;30101;32.778;34.994;2022-09-02T01:32:53;97187.03;;;25.20;77.54
44385;BME280;30101;32.778;34.994;2022-09-02T01:37:58;97187.88;;;25.21;77.68
44385;BME280;30101;32.778;34.994;2022-09-02T01:43:05;97195.91;;;25.26;77.25
44385;BME280;30101;32.778;34.994;2022-09-02T01:48:11;97197.88;;;25.34;77.46
44385;BME280;30101;32.778;34.994;2022-09-02T01:53:15;97199.78;;;25.34;77.27
44385;BME280;30101;32.778;34.994;2022-09-02T01:58:22;97199.78;;;25.34;77.46
44385;BME280;30101;32.778;34.994;2022-09-02T02:03:26;97192.22;;;25.31;77.69
44385;BME280;30101;32.778;34.994;2022-09-02T02:08:33;97200.41;;;25.31;77.88
44385;BME280;30101;32.778;34.994;2022-09-02T02:13:36;97208.13;;;25.28;77.93
44385;BME280;30101;32.778;34.994;2022-09-02T02:18:41;97217.47;;;25.27;77.88
44385;BME280;30101;32.778;34.994;2022-09-02T02:23:44;97200.88;;;25.24;78.46
44385;BME280;30101;32.778;34.994;2022-09-02T02:28:48;97215.00;;;25.17;78.48
44385;BME280;30101;32.778;34.994;2022-09-02T02:33:53;97206.03;;;25.17;78.78
44385;BME280;30101;32.778;34.994;2022-09-02T02:38:57;97203.91;;;25.14;78.97
44385;BME280;30101;32.778;34.994;2022-09-02T02:44:01;97203.28;;;25.08;78.86
44385;BME280;30101;32.778;34.994;2022-09-02T02:49:05;97202.78;;;25.06;78.97
44385;BME280;30101;32.778;34.994;2022-09-02T02:54:09;97212.09;;;25.05;79.20
44385;BME280;30101;32.778;34.994;2022-09-02T02:59:13;97211.75;;;25.07;79.46
44385;BME280;30101;32.778;34.994;2022-09-02T03:04:16;97218.66;;;25.04;79.53
44385;BME280;30101;32.778;34.994;2022-09-02T03:09:20;97225.94;;;25.09;79.26
44385;BME280;30101;32.778;34.994;2022-09-02T03:14:26;97228.16;;;25.07;79.89
44385;BME280;30101;32.778;34.994;2022-09-02T03:19:32;97224.94;;;25.05;79.61
44385;BME280;30101;32.778;34.994;2022-09-02T03:24:37;97236.16;;;25.03;79.99
44385;BME280;30101;32.778;34.994;2022-09-02T03:29:41;97231.81;;;25.02;79.87
44385;BME280;30101;32.778;34.994;2022-09-02T03:34:46;97233.44;;;25.03;79.87
44385;BME280;30101;32.778;34.994;2022-09-02T03:39:49;97241.34;;;25.05;80.16
44385;BME280;30101;32.778;34.994;2022-09-02T03:44:53;97243.22;;;25.04;80.19
44385;BME280;30101;32.778;34.994;2022-09-02T03:49:58;97255.66;;;25.10;80.18
44385;BME280;30101;32.778;34.994;2022-09-02T03:55:04;97253.09;;;25.14;80.15
44385;BME280;30101;32.778;34.994;2022-09-02T04:00:09;97255.19;;;25.17;80.18
44385;BME280;30101;32.778;34.994;2022-09-02T04:05:17;97264.38;;;25.21;79.88
44385;BME280;30101;32.778;34.994;2022-09-02T04:10:22;97259.56;;;25.26;80.14
44385;BME280;30101;32.778;34.994;2022-09-02T04:15:26;97265.53;;;25.37;79.73
44385;BME280;30101;32.778;34.994;2022-09-02T04:20:30;97263.31;;;25.48;79.96
44385;BME280;30101;32.778;34.994;2022-09-02T04:25:41;97254.50;;;25.60;79.65
44385;BME280;30101;32.778;34.994;2022-09-02T04:30:46;97266.22;;;25.69;79.14
44385;BME280;30101;32.778;34.994;2022-09-02T04:35:51;97259.38;;;25.80;79.33
44385;BME280;30101;32.778;34.994;2022-09-02T04:40:55;97264.03;;;25.88;78.92
44385;BME280;30101;32.778;34.994;2022-09-02T04:46:02;97266.44;;;25.98;78.74
44385;BME280;30101;32.778;34.994;2022-09-02T04:51:11;97269.34;;;26.11;78.41
44385;BME280;30101;32.778;34.994;2022-09-02T04:56:26;97268.38;;;26.24;78.10
44385;BME280;30101;32.778;34.994;2022-09-02T05:01:33;97256.91;;;26.39;77.56
44385;BME280;30101;32.778;34.994;2022-09-02T05:06:43;97263.84;;;26.54;77.09
44385;BME280;30101;32.778;34.994;2022-09-02T05:11:52;97260.88;;;26.76;76.80
44385;BME280;30101;32.778;34.994;2022-09-02T05:16:58;97264.66;;;27.01;75.79
44385;BME280;30101;32.778;34.994;2022-09-02T05:22:15;97256.38;;;27.19;75.19
44385;BME280;30101;32.778;34.994;2022-09-02T05:27:20;97261.63;;;27.32;74.71
44385;BME280;30101;32.778;34.994;2022-09-02T05:32:26;97274.06;;;27.30;74.34
44385;BME280;30101;32.778;34.994;2022-09-02T05:37:30;97275.66;;;27.31;74.28
44385;BME280;30101;32.778;34.994;2022-09-02T05:42:35;97283.03;;;27.39;74.04
44385;BME280;30101;32.778;34.994;2022-09-02T05:47:39;97291.69;;;27.50;73.56
44385;BME280;30101;32.778;34.994;2022-09-02T05:52:43;97294.72;;;27.57;73.39
44385;BME280;30101;32.778;34.994;2022-09-02T05:57:47;97294.06;;;27.60;72.93
44385;BME280;30101;32.778;34.994;2022-09-02T06:02:51;97295.00;;;27.64;72.66
44385;BME280;30101;32.778;34.994;2022-09-02T06:08:06;97292.69;;;27.75;72.20
44385;BME280;30101;32.778;34.994;2022-09-02T06:13:12;97313.78;;;27.83;71.90
44385;BME280;30101;32.778;34.994;2022-09-02T06:18:17;97314.28;;;27.85;71.26
44385;BME280;30101;32.778;34.994;2022-09-02T06:23:24;97321.47;;;27.89;71.72
44385;BME280;30101;32.778;34.994;2022-09-02T06:28:28;97327.13;;;28.14;70.81
44385;BME280;30101;32.778;34.994;2022-09-02T06:33:33;97322.53;;;28.60;69.71
44385;BME280;30101;32.778;34.994;2022-09-02T06:38:42;97308.22;;;28.87;69.05
44385;BME280;30101;32.778;34.994;2022-09-02T06:43:49;97318.38;;;29.20;69.20
44385;BME280;30101;32.778;34.994;2022-09-02T06:48:59;97326.28;;;29.46;67.94
44385;BME280;30101;32.778;34.994;2022-09-02T06:54:05;97330.00;;;29.74;67.06
44385;BME280;30101;32.778;34.994;2022-09-02T06:59:11;97330.22;;;29.69;66.58
44385;BME280;30101;32.778;34.994;2022-09-02T07:04:24;97328.34;;;29.37;66.70
44385;BME280;30101;32.778;34.994;2022-09-02T07:09:31;97323.66;;;29.25;66.89
44385;BME280;30101;32.778;34.994;2022-09-02T07:14:44;97329.25;;;29.41;66.95
44385;BME280;30101;32.778;34.994;2022-09-02T07:19:51;97321.22;;;29.48;66.10
44385;BME280;30101;32.778;34.994;2022-09-02T07:24:56;97321.81;;;29.41;66.11
44385;BME280;30101;32.778;34.994;2022-09-02T07:30:05;97317.94;;;29.30;65.97
44385;BME280;30101;32.778;34.994;2022-09-02T07:35:14;97320.44;;;29.35;66.36
44385;BME280;30101;32.778;34.994;2022-09-02T07:40:22;97327.47;;;29.69;65.92
44385;BME280;30101;32.778;34.994;2022-09-02T07:45:26;97323.19;;;29.84;65.38
44385;BME280;30101;32.778;34.994;2022-09-02T07:50:30;97322.84;;;29.86;65.11
44385;BME280;30101;32.778;34.994;2022-09-02T07:55:36;97329.50;;;29.85;64.86
44385;BME280;30101;32.778;34.994;2022-09-02T08:00:42;97326.53;;;29.77;65.45
44385;BME280;30101;32.778;34.994;2022-09-02T08:05:51;97320.66;;;29.79;65.88
44385;BME280;30101;32.778;34.994;2022-09-02T08:10:54;97310.13;;;29.93;65.89
44385;BME280;30101;32.778;34.994;2022-09-02T08:15:58;97312.28;;;30.12;65.30
44385;BME280;30101;32.778;34.994;2022-09-02T08:21:02;97315.25;;;30.07;65.40
44385;BME280;30101;32.778;34.994;2022-09-02T08:26:12;97308.41;;;29.89;65.19
44385;BME280;30101;32.778;34.994;2022-09-02T08:31:15;97309.66;;;29.79;65.44
44385;BME280;30101;32.778;34.994;2022-09-02T08:36:19;97296.84;;;29.59;65.67
44385;BME280;30101;32.778;34.994;2022-09-02T08:41:31;97293.88;;;29.51;66.18
44385;BME280;30101;32.778;34.994;2022-09-02T08:46:35;97296.16;;;29.86;65.98
44385;BME280;30101;32.778;34.994;2022-09-02T08:56:54;97297.38;;;30.01;65.26
44385;BME280;30101;32.778;34.994;2022-09-02T09:07:26;97296.31;;;30.05;64.91
44385;BME280;30101;32.778;34.994;2022-09-02T09:18:38;97283.00;;;30.20;65.36
44385;BME280;30101;32.778;34.994;2022-09-02T09:23:53;97284.50;;;30.45;64.23
44385;BME280;30101;32.778;34.994;2022-09-02T09:29:03;97281.91;;;30.37;64.00
44385;BME280;30101;32.778;34.994;2022-09-02T09:34:11;97290.66;;;30.26;64.18
44385;BME280;30101;32.778;34.994;2022-09-02T09:39:26;97289.75;;;30.22;64.53
44385;BME280;30101;32.778;34.994;2022-09-02T09:49:37;97287.13;;;30.14;64.17
44385;BME280;30101;32.778;34.994;2022-09-02T09:54:44;97286.56;;;30.08;64.50
44385;BME280;30101;32.778;34.994;2022-09-02T09:59:48;97289.47;;;29.87;64.48
44385;BME280;30101;32.778;34.994;2022-09-02T10:10:31;97292.72;;;29.65;65.12
44385;BME280;30101;32.778;34.994;2022-09-02T10:15:44;97287.53;;;29.88;64.90
44385;BME280;30101;32.778;34.994;2022-09-02T10:20:58;97288.53;;;29.95;64.59
44385;BME280;30101;32.778;34.994;2022-09-02T10:26:36;97283.44;;;30.09;64.07
44385;BME280;30101;32.778;34.994;2022-09-02T10:37:20;97286.25;;;29.85;64.53
44385;BME280;30101;32.778;34.994;2022-09-02T10:43:00;97280.22;;;29.79;64.23
44385;BME280;30101;32.778;34.994;2022-09-02T10:53:39;97277.50;;;29.67;64.89
44385;BME280;30101;32.778;34.994;2022-09-02T10:58:59;97272.78;;;29.68;65.08
44385;BME280;30101;32.778;34.994;2022-09-02T11:04:46;97267.16;;;29.52;65.16
44385;BME280;30101;32.778;34.994;2022-09-02T11:09:58;97268.75;;;29.41;65.11
44385;BME280;30101;32.778;34.994;2022-09-02T11:15:20;97268.66;;;29.37;65.08
44385;BME280;30101;32.778;34.994;2022-09-02T11:20:40;97262.00;;;29.26;65.63
44385;BME280;30101;32.778;34.994;2022-09-02T11:26:10;97262.00;;;29.14;65.35
44385;BME280;30101;32.778;34.994;2022-09-02T11:36:48;97243.44;;;28.98;66.09
44385;BME280;30101;32.778;34.994;2022-09-02T11:52:46;97239.88;;;29.10;65.99
44385;BME280;30101;32.778;34.994;2022-09-02T11:57:55;97234.63;;;29.05;65.63
44385;BME280;30101;32.778;34.994;2022-09-02T12:13:41;97225.31;;;28.97;65.95
44385;BME280;30101;32.778;34.994;2022-09-02T12:50:20;97218.25;;;28.51;66.80
44385;BME280;30101;32.778;34.994;2022-09-02T12:55:30;97221.69;;;28.48;67.11
44385;BME280;30101;32.778;34.994;2022-09-02T13:28:38;97205.47;;;28.67;67.33
44385;BME280;30101;32.778;34.994;2022-09-02T13:34:11;97209.09;;;28.59;67.40
44385;BME280;30101;32.778;34.994;2022-09-02T13:39:23;97205.31;;;28.52;67.38
44385;BME280;30101;32.778;34.994;2022-09-02T13:44:28;97209.78;;;28.44;67.66
44385;BME280;30101;32.778;34.994;2022-09-02T13:49:36;97196.94;;;28.36;67.85
44385;BME280;30101;32.778;34.994;2022-09-02T13:54:44;97196.69;;;28.29;67.80
44385;BME280;30101;32.778;34.994;2022-09-02T13:59:54;97195.22;;;28.31;68.04
44385;BME280;30101;32.778;34.994;2022-09-02T14:10:14;97188.09;;;28.30;68.37
44385;BME280;30101;32.778;34.994;2022-09-02T14:15:25;97186.50;;;28.29;68.37
44385;BME280;30101;32.778;34.994;2022-09-02T14:20:29;97176.59;;;28.16;68.85
44385;BME280;30101;32.778;34.994;2022-09-02T14:25:37;97185.41;;;28.21;69.17
44385;BME280;30101;32.778;34.994;2022-09-02T14:30:41;97177.28;;;28.13;68.93
44385;BME280;30101;32.778;34.994;2022-09-02T14:41:18;97175.59;;;27.87;70.00
44385;BME280;30101;32.778;34.994;2022-09-02T14:46:36;97188.47;;;27.75;70.16
44385;BME280;30101;32.778;34.994;2022-09-02T14:51:46;97168.00;;;27.72;70.37
44385;BME280;30101;32.778;34.994;2022-09-02T14:56:51;97173.97;;;27.65;70.71
44385;BME280;30101;32.778;34.994;2022-09-02T15:01:57;97178.88;;;27.60;70.98
44385;BME280;30101;32.778;34.994;2022-09-02T15:07:00;97172.53;;;27.47;71.01
44385;BME280;30101;32.778;34.994;2022-09-02T15:12:04;97179.00;;;27.42;71.62
44385;BME280;30101;32.778;34.994;2022-09-02T15:17:09;97172.75;;;27.33;71.82
44385;BME280;30101;32.778;34.994;2022-09-02T15:22:14;97178.47;;;27.28;71.99
44385;BME280;30101;32.778;34.994;2022-09-02T15:27:19;97172.22;;;27.19;72.22
44385;BME280;30101;32.778;34.994;2022-09-02T15:32:25;97169.38;;;27.07;72.40
44385;BME280;30101;32.778;34.994;2022-09-02T15:37:31;97164.84;;;27.02;72.80
44385;BME280;30101;32.778;34.994;2022-09-02T15:42:38;97164.59;;;26.95;73.23
44385;BME280;30101;32.778;34.994;2022-09-02T15:47:42;97163.31;;;26.93;73.28
44385;BME280;30101;32.778;34.994;2022-09-02T15:52:46;97163.97;;;26.89;73.51
44385;BME280;30101;32.778;34.994;2022-09-02T15:57:49;97182.69;;;26.87;73.96
44385;BME280;30101;32.778;34.994;2022-09-02T16:02:53;97178.00;;;26.88;73.90
44385;BME280;30101;32.778;34.994;2022-09-02T16:07:57;97174.78;;;26.86;73.98
44385;BME280;30101;32.778;34.994;2022-09-02T16:13:14;97185.25;;;26.84;74.15
44385;BME280;30101;32.778;34.994;2022-09-02T16:18:18;97195.13;;;26.85;74.17
44385;BME280;30101;32.778;34.994;2022-09-02T16:23:22;97190.94;;;26.79;74.40
44385;BME280;30101;32.778;34.994;2022-09-02T16:28:36;97189.13;;;26.83;74.89
44385;BME280;30101;32.778;34.994;2022-09-02T16:33:40;97194.63;;;26.83;74.83
44385;BME280;30101;32.778;34.994;2022-09-02T16:38:43;97195.75;;;26.82;75.08
44385;BME280;30101;32.778;34.994;2022-09-02T16:43:48;97201.91;;;26.79;75.00
44385;BME280;30101;32.778;34.994;2022-09-02T16:48:51;97203.50;;;26.80;74.92
44385;BME280;30101;32.778;34.994;2022-09-02T16:54:01;97204.16;;;26.77;75.29
44385;BME280;30101;32.778;34.994;2022-09-02T16:59:07;97214.63;;;26.75;75.53
44385;BME280;30101;32.778;34.994;2022-09-02T17:04:13;97221.91;;;26.71;75.59
44385;BME280;30101;32.778;34.994;2022-09-02T17:09:17;97228.50;;;26.70;75.89
44385;BME280;30101;32.778;34.994;2022-09-02T17:14:21;97237.06;;;26.68;76.03
44385;BME280;30101;32.778;34.994;2022-09-02T17:19:26;97245.59;;;26.67;76.27
44385;BME280;30101;32.778;34.994;2022-09-02T17:24:34;97248.81;;;26.69;76.25
44385;BME280;30101;32.778;34.994;2022-09-02T17:29:41;97257.03;;;26.69;76.48
44385;BME280;30101;32.778;34.994;2022-09-02T17:34:52;97258.31;;;26.71;76.67
44385;BME280;30101;32.778;34.994;2022-09-02T17:39:57;97262.19;;;26.70;76.62
44385;BME280;30101;32.778;34.994;2022-09-02T17:45:05;97267.66;;;26.70;76.70
44385;BME280;30101;32.778;34.994;2022-09-02T17:50:09;97281.50;;;26.74;76.93
44385;BME280;30101;32.778;34.994;2022-09-02T17:55:19;97290.69;;;26.78;76.88
44385;BME280;30101;32.778;34.994;2022-09-02T18:00:23;97275.38;;;26.77;76.95
44385;BME280;30101;32.778;34.994;2022-09-02T18:05:49;97292.75;;;26.81;77.18
44385;BME280;30101;32.778;34.994;2022-09-02T18:10:57;97293.09;;;26.79;77.09
44385;BME280;30101;32.778;34.994;2022-09-02T18:16:28;97287.63;;;26.79;77.13
44385;BME280;30101;32.778;34.994;2022-09-02T18:21:56;97295.03;;;26.79;76.99
44385;BME280;30101;32.778;34.994;2022-09-02T18:27:31;97289.41;;;26.75;77.34
44385;BME280;30101;32.778;34.994;2022-09-02T18:38:07;97309.03;;;26.77;77.66
44385;BME280;30101;32.778;34.994;2022-09-02T18:48:35;97296.47;;;26.76;77.60
44385;BME280;30101;32.778;34.994;2022-09-02T18:53:45;97303.88;;;26.76;77.99
44385;BME280;30101;32.778;34.994;2022-09-02T18:58:58;97305.69;;;26.72;78.19
44385;BME280;30101;32.778;34.994;2022-09-02T19:04:10;97298.91;;;26.69;78.31
44385;BME280;30101;32.778;34.994;2022-09-02T19:09:19;97297.31;;;26.68;78.37
44385;BME280;30101;32.778;34.994;2022-09-02T19:14:27;97300.53;;;26.70;78.59
44385;BME280;30101;32.778;34.994;2022-09-02T19:19:31;97305.06;;;26.66;78.69
44385;BME280;30101;32.778;34.994;2022-09-02T19:24:44;97296.03;;;26.66;78.73
44385;BME280;30101;32.778;34.994;2022-09-02T19:29:53;97297.66;;;26.67;78.73
44385;BME280;30101;32.778;34.994;2022-09-02T19:35:05;97305.84;;;26.67;78.77
44385;BME280;30101;32.778;34.994;2022-09-02T19:40:13;97311.81;;;26.69;78.73
44385;BME280;30101;32.778;34.994;2022-09-02T19:45:20;97313.41;;;26.70;78.81
44385;BME280;30101;32.778;34.994;2022-09-02T19:50:25;97314.38;;;26.74;79.02
44385;BME280;30101;32.778;34.994;2022-09-02T19:55:32;97312.78;;;26.73;78.83
44385;BME280;30101;32.778;34.994;2022-09-02T20:00:39;97308.44;;;26.72;79.20
44385;BME280;30101;32.778;34.994;2022-09-02T20:05:43;97315.50;;;26.73;79.19
44385;BME280;30101;32.778;34.994;2022-09-02T20:11:01;97322.13;;;26.72;79.18
44385;BME280;30101;32.778;34.994;2022-09-02T20:16:19;97304.72;;;26.68;79.22
44385;BME280;30101;32.778;34.994;2022-09-02T20:21:29;97312.94;;;26.68;79.56
44385;BME280;30101;32.778;34.994;2022-09-02T20:48:15;97332.44;;;26.57;79.94
44385;BME280;30101;32.778;34.994;2022-09-02T20:59:14;97340.03;;;26.60;79.92
44385;BME280;30101;32.778;34.994;2022-09-02T21:14:45;97343.25;;;26.54;80.32
44385;BME280;30101;32.778;34.994;2022-09-02T21:26:02;97340.00;;;26.52;80.48
44385;BME280;30101;32.778;34.994;2022-09-02T21:31:33;97344.53;;;26.48;80.23
44385;BME280;30101;32.778;34.994;2022-09-02T21:36:42;97340.50;;;26.45;80.30
44385;BME280;30101;32.778;34.994;2022-09-02T22:03:37;97338.56;;;26.46;80.37
44385;BME280;30101;32.778;34.994;2022-09-02T22:09:02;97337.13;;;26.48;80.59
44385;BME280;30101;32.778;34.994;2022-09-02T22:14:17;97331.50;;;26.45;80.90
44385;BME280;30101;32.778;34.994;2022-09-02T22:19:28;97322.94;;;26.46;80.76
44385;BME280;30101;32.778;34.994;2022-09-02T22:24:33;97341.16;;;26.42;80.97
44385;BME280;30101;32.778;34.994;2022-09-02T22:40:27;97345.50;;;26.34;81.12
44385;BME280;30101;32.778;34.994;2022-09-02T22:51:27;97340.50;;;26.28;81.68
44385;BME280;30101;32.778;34.994;2022-09-02T23:02:29;97341.59;;;26.27;82.15
44385;BME280;30101;32.778;34.994;2022-09-02T23:07:34;97350.94;;;26.26;82.16
44385;BME280;30101;32.778;34.994;2022-09-02T23:18:20;97341.31;;;26.28;82.26
44385;BME280;30101;32.778;34.994;2022-09-02T23:23:47;97347.88;;;26.27;82.05
44385;BME280;30101;32.778;34.994;2022-09-02T23:29:18;97352.72;;;26.30;82.37
44385;BME280;30101;32.778;34.994;2022-09-02T23:51:57;97350.16;;;26.25;82.24
